AXY75 EFHK-LGAV
Flight info
| Callsign | AXY75 |
|---|---|
| Flight time | N/A |
| Altitude | 40000 |
| Route | KOIVU DCT LARTI DCT NAVOT DCT LUTAL DCT BERIL/N0472F410 DCT SUWGI/N0470F400 DCT TITUV M985 SUTIK DCT LOGDA/N0469F410 DCT KSC DCT NARKA DCT ORA DCT ADUKU DCT BAVMA DCT EVRIK DCT OLMIP DCT EKNAB DCT SODGO DCT OVDOT DCT LOMOS/N0464F400 DCT BOBVO DCT LETNI/N0466F410 DCT MAKED DCT SIGFO UM749 ROPOX |
| Aircraft | A343/H-SDE2E3FGHIJ4J5M1RWXY/LB1D1 |
Departure
| Time | N/A |
|---|---|
| Airport | Helsinki Vantaa Airport (EFHK) |
Arrival
| Time | 2026-05-07 00:43 |
|---|---|
| Airport | Athens Eleftherios Venizelos International Airport (LGAV) |
| Time | Latitude | Longitude | Altitude | Speed | Heading |
|---|---|---|---|---|---|
| 2026-05-06 23:03 | 49.25063 | 21.13228 | 39885 ft | 470 kts | 175° |
| 2026-05-06 23:04 | 49.18574 | 21.14567 | 39889 ft | 471 kts | 175° |
| 2026-05-06 23:04 | 49.12089 | 21.15901 | 39901 ft | 470 kts | 175° |
| 2026-05-06 23:05 | 49.05607 | 21.17231 | 39883 ft | 470 kts | 175° |
| 2026-05-06 23:05 | 48.99111 | 21.18560 | 39901 ft | 471 kts | 175° |
| 2026-05-06 23:06 | 48.92611 | 21.19885 | 39909 ft | 471 kts | 175° |
| 2026-05-06 23:06 | 48.86116 | 21.21208 | 39908 ft | 471 kts | 175° |
| 2026-05-06 23:07 | 48.79624 | 21.22526 | 39912 ft | 470 kts | 175° |
| 2026-05-06 23:07 | 48.73134 | 21.23840 | 39912 ft | 470 kts | 175° |
| 2026-05-06 23:08 | 48.66722 | 21.25591 | 39911 ft | 473 kts | 169° |
| 2026-05-06 23:08 | 48.60371 | 21.28229 | 39911 ft | 473 kts | 167° |
| 2026-05-06 23:09 | 48.54050 | 21.31012 | 39913 ft | 473 kts | 167° |
| 2026-05-06 23:09 | 48.47725 | 21.33717 | 39914 ft | 472 kts | 170° |
| 2026-05-06 23:10 | 48.41275 | 21.35369 | 39919 ft | 469 kts | 175° |
| 2026-05-06 23:10 | 48.34817 | 21.36738 | 39920 ft | 468 kts | 175° |
| 2026-05-06 23:11 | 48.28457 | 21.39002 | 39916 ft | 471 kts | 166° |
| 2026-05-06 23:11 | 48.22182 | 21.41886 | 39922 ft | 472 kts | 166° |
| 2026-05-06 23:12 | 48.15904 | 21.44794 | 39908 ft | 472 kts | 166° |
| 2026-05-06 23:12 | 48.09623 | 21.47683 | 39918 ft | 472 kts | 166° |
| 2026-05-06 23:13 | 48.03347 | 21.50560 | 39923 ft | 472 kts | 166° |
| 2026-05-06 23:13 | 47.97071 | 21.53437 | 39923 ft | 472 kts | 166° |
| 2026-05-06 23:14 | 47.90785 | 21.56315 | 39905 ft | 472 kts | 166° |
| 2026-05-06 23:14 | 47.84498 | 21.59180 | 39917 ft | 473 kts | 166° |
| 2026-05-06 23:15 | 47.78198 | 21.62040 | 39931 ft | 474 kts | 166° |
| 2026-05-06 23:15 | 47.71936 | 21.64880 | 39938 ft | 474 kts | 166° |
| 2026-05-06 23:16 | 47.65628 | 21.67737 | 39935 ft | 474 kts | 166° |
| 2026-05-06 23:16 | 47.59322 | 21.70599 | 39935 ft | 474 kts | 166° |
| 2026-05-06 23:17 | 47.53022 | 21.73457 | 39938 ft | 474 kts | 166° |
| 2026-05-06 23:17 | 47.46714 | 21.76315 | 39931 ft | 474 kts | 166° |
| 2026-05-06 23:18 | 47.40402 | 21.79167 | 39928 ft | 474 kts | 166° |
| 2026-05-06 23:18 | 47.34104 | 21.82021 | 39937 ft | 473 kts | 166° |
| 2026-05-06 23:19 | 47.27806 | 21.84874 | 39937 ft | 473 kts | 166° |
| 2026-05-06 23:19 | 47.21514 | 21.87726 | 39937 ft | 473 kts | 166° |
| 2026-05-06 23:20 | 47.15264 | 21.90555 | 39937 ft | 473 kts | 166° |
| 2026-05-06 23:20 | 47.08966 | 21.93399 | 39935 ft | 473 kts | 166° |
| 2026-05-06 23:21 | 47.02675 | 21.96244 | 39938 ft | 473 kts | 166° |
| 2026-05-06 23:21 | 46.96389 | 21.99085 | 39939 ft | 473 kts | 166° |
| 2026-05-06 23:22 | 46.90098 | 22.01924 | 39940 ft | 474 kts | 166° |
| 2026-05-06 23:22 | 46.83794 | 22.04762 | 39949 ft | 475 kts | 166° |
| 2026-05-06 23:23 | 46.77478 | 22.07601 | 39955 ft | 475 kts | 166° |
| 2026-05-06 23:23 | 46.72234 | 22.09959 | 39952 ft | 474 kts | 166° |
| 2026-05-06 23:24 | 46.65930 | 22.12794 | 39973 ft | 474 kts | 166° |
| 2026-05-06 23:24 | 46.59626 | 22.15629 | 39969 ft | 474 kts | 166° |
| 2026-05-06 23:25 | 46.53319 | 22.18458 | 39980 ft | 474 kts | 166° |
| 2026-05-06 23:25 | 46.47011 | 22.21282 | 39978 ft | 474 kts | 166° |
| 2026-05-06 23:26 | 46.40704 | 22.24109 | 39981 ft | 475 kts | 166° |
| 2026-05-06 23:26 | 46.34384 | 22.26934 | 39980 ft | 475 kts | 166° |
| 2026-05-06 23:27 | 46.28058 | 22.29757 | 39993 ft | 476 kts | 166° |
| 2026-05-06 23:27 | 46.21737 | 22.32577 | 39990 ft | 476 kts | 166° |
| 2026-05-06 23:28 | 46.15410 | 22.35400 | 39988 ft | 476 kts | 166° |
| 2026-05-06 23:28 | 46.09074 | 22.38227 | 39994 ft | 477 kts | 166° |
| 2026-05-06 23:29 | 46.02741 | 22.41046 | 39988 ft | 476 kts | 166° |
| 2026-05-06 23:29 | 45.96407 | 22.43865 | 39990 ft | 476 kts | 166° |
| 2026-05-06 23:30 | 45.90071 | 22.46690 | 39991 ft | 477 kts | 166° |
| 2026-05-06 23:30 | 45.83735 | 22.49516 | 39999 ft | 477 kts | 166° |
| 2026-05-06 23:31 | 45.77396 | 22.52342 | 40000 ft | 477 kts | 166° |
| 2026-05-06 23:31 | 45.71059 | 22.55167 | 40002 ft | 477 kts | 166° |
| 2026-05-06 23:32 | 45.64713 | 22.57996 | 40007 ft | 478 kts | 166° |
| 2026-05-06 23:32 | 45.58366 | 22.60816 | 40018 ft | 478 kts | 166° |
| 2026-05-06 23:33 | 45.52060 | 22.63617 | 40022 ft | 478 kts | 166° |
| 2026-05-06 23:33 | 45.45713 | 22.66448 | 40031 ft | 479 kts | 166° |
| 2026-05-06 23:34 | 45.39352 | 22.69290 | 40038 ft | 479 kts | 166° |
| 2026-05-06 23:34 | 45.32988 | 22.72124 | 40044 ft | 479 kts | 166° |
| 2026-05-06 23:35 | 45.26635 | 22.74945 | 40035 ft | 479 kts | 166° |
| 2026-05-06 23:35 | 45.20255 | 22.77789 | 40050 ft | 481 kts | 166° |
| 2026-05-06 23:36 | 45.13865 | 22.80629 | 40042 ft | 481 kts | 166° |
| 2026-05-06 23:36 | 45.07476 | 22.83461 | 40046 ft | 481 kts | 166° |
| 2026-05-06 23:37 | 45.01085 | 22.86303 | 40041 ft | 482 kts | 166° |
| 2026-05-06 23:37 | 44.94674 | 22.89156 | 40036 ft | 484 kts | 166° |
| 2026-05-06 23:38 | 44.88254 | 22.92011 | 40040 ft | 484 kts | 166° |
| 2026-05-06 23:38 | 44.81834 | 22.94866 | 40014 ft | 484 kts | 166° |
| 2026-05-06 23:39 | 44.75405 | 22.97726 | 40028 ft | 485 kts | 166° |
| 2026-05-06 23:39 | 44.68961 | 23.00590 | 40028 ft | 486 kts | 166° |
| 2026-05-06 23:40 | 44.62514 | 23.03452 | 40022 ft | 486 kts | 166° |
| 2026-05-06 23:40 | 44.56062 | 23.06308 | 40010 ft | 487 kts | 166° |
| 2026-05-06 23:41 | 44.49596 | 23.09161 | 40010 ft | 488 kts | 166° |
| 2026-05-06 23:41 | 44.43120 | 23.12009 | 40001 ft | 487 kts | 166° |
| 2026-05-06 23:42 | 44.36689 | 23.14817 | 39999 ft | 487 kts | 166° |
| 2026-05-06 23:42 | 44.30217 | 23.17638 | 39995 ft | 487 kts | 166° |
| 2026-05-06 23:43 | 44.23738 | 23.20461 | 39994 ft | 487 kts | 166° |
| 2026-05-06 23:43 | 44.17263 | 23.23281 | 39992 ft | 487 kts | 166° |
| 2026-05-06 23:44 | 44.10786 | 23.26089 | 39986 ft | 488 kts | 166° |
| 2026-05-06 23:44 | 44.04298 | 23.28870 | 39982 ft | 488 kts | 166° |
| 2026-05-06 23:45 | 43.97804 | 23.31651 | 39985 ft | 488 kts | 166° |
| 2026-05-06 23:45 | 43.91310 | 23.34431 | 39976 ft | 488 kts | 166° |
| 2026-05-06 23:46 | 43.84805 | 23.37209 | 39982 ft | 490 kts | 166° |
| 2026-05-06 23:46 | 43.78327 | 23.39965 | 39982 ft | 490 kts | 166° |
| 2026-05-06 23:47 | 43.71808 | 23.42727 | 39980 ft | 490 kts | 166° |
| 2026-05-06 23:47 | 43.65234 | 23.45165 | 39984 ft | 487 kts | 178° |
| 2026-05-06 23:47 | 43.61879 | 23.45106 | 39987 ft | 479 kts | 191° |
| 2026-05-06 23:48 | 43.58594 | 23.44373 | 39981 ft | 478 kts | 194° |
| 2026-05-06 23:48 | 43.52082 | 23.42479 | 39990 ft | 478 kts | 197° |
| 2026-05-06 23:49 | 43.45672 | 23.40047 | 39996 ft | 478 kts | 200° |
| 2026-05-06 23:49 | 43.39288 | 23.37437 | 40001 ft | 479 kts | 200° |
| 2026-05-06 23:50 | 43.32886 | 23.34862 | 39999 ft | 479 kts | 199° |
| 2026-05-06 23:50 | 43.23249 | 23.31075 | 40019 ft | 481 kts | 199° |
| 2026-05-06 23:51 | 43.16807 | 23.28563 | 40026 ft | 481 kts | 199° |
| 2026-05-06 23:51 | 43.10359 | 23.26050 | 40032 ft | 482 kts | 199° |
| 2026-05-06 23:52 | 43.03942 | 23.23555 | 40043 ft | 483 kts | 199° |
| 2026-05-06 23:52 | 42.97469 | 23.21046 | 40042 ft | 484 kts | 199° |
| 2026-05-06 23:53 | 42.90989 | 23.18538 | 40054 ft | 485 kts | 199° |
| 2026-05-06 23:53 | 42.84485 | 23.16026 | 40063 ft | 486 kts | 199° |
| 2026-05-06 23:54 | 42.77982 | 23.13521 | 40057 ft | 486 kts | 199° |
| 2026-05-06 23:54 | 42.71483 | 23.11021 | 40068 ft | 485 kts | 199° |
| 2026-05-06 23:55 | 42.64988 | 23.08529 | 40066 ft | 485 kts | 199° |
| 2026-05-06 23:55 | 42.58491 | 23.06041 | 40063 ft | 485 kts | 199° |
| 2026-05-06 23:56 | 42.51984 | 23.03555 | 40064 ft | 486 kts | 199° |
| 2026-05-06 23:56 | 42.45473 | 23.01073 | 40064 ft | 486 kts | 199° |
| 2026-05-06 23:57 | 42.39005 | 22.98612 | 40069 ft | 486 kts | 199° |
| 2026-05-06 23:57 | 42.32488 | 22.96139 | 40072 ft | 486 kts | 199° |
| 2026-05-06 23:58 | 42.25976 | 22.93672 | 40067 ft | 486 kts | 199° |
| 2026-05-06 23:58 | 42.19455 | 22.91207 | 40079 ft | 486 kts | 199° |
| 2026-05-06 23:59 | 42.12938 | 22.88752 | 40085 ft | 486 kts | 199° |
| 2026-05-06 23:59 | 42.06419 | 22.86298 | 40084 ft | 487 kts | 199° |
| 2026-05-07 00:00 | 41.99896 | 22.83847 | 40088 ft | 486 kts | 199° |
| 2026-05-07 00:00 | 41.94486 | 22.81818 | 40086 ft | 486 kts | 199° |
| 2026-05-07 00:01 | 41.86870 | 22.78968 | 40089 ft | 486 kts | 199° |
| 2026-05-07 00:01 | 41.80369 | 22.76546 | 40090 ft | 484 kts | 199° |
| 2026-05-07 00:02 | 41.73892 | 22.74136 | 40087 ft | 483 kts | 199° |
| 2026-05-07 00:02 | 41.67460 | 22.71744 | 40081 ft | 483 kts | 199° |
| 2026-05-07 00:03 | 41.60986 | 22.69341 | 40082 ft | 483 kts | 199° |
| 2026-05-07 00:03 | 41.54509 | 22.66943 | 40082 ft | 483 kts | 199° |
| 2026-05-07 00:04 | 41.48030 | 22.64550 | 40081 ft | 483 kts | 199° |
| 2026-05-07 00:04 | 41.41547 | 22.62161 | 40079 ft | 483 kts | 199° |
| 2026-05-07 00:05 | 41.35062 | 22.59776 | 40072 ft | 483 kts | 199° |
| 2026-05-07 00:05 | 41.28577 | 22.57396 | 40081 ft | 484 kts | 199° |
| 2026-05-07 00:06 | 41.22091 | 22.55021 | 40082 ft | 484 kts | 199° |
| 2026-05-07 00:06 | 41.15483 | 22.53228 | 40072 ft | 489 kts | 187° |
| 2026-05-07 00:07 | 41.08684 | 22.54066 | 40081 ft | 496 kts | 168° |
| 2026-05-07 00:07 | 41.02131 | 22.57051 | 40081 ft | 500 kts | 160° |
| 2026-05-07 00:08 | 40.95726 | 22.60662 | 40078 ft | 501 kts | 159° |
| 2026-05-07 00:08 | 40.89311 | 22.64256 | 40077 ft | 500 kts | 160° |
| 2026-05-07 00:09 | 40.82871 | 22.67740 | 40081 ft | 500 kts | 160° |
| 2026-05-07 00:09 | 40.76425 | 22.71166 | 40080 ft | 500 kts | 160° |
| 2026-05-07 00:10 | 40.69976 | 22.74578 | 40072 ft | 500 kts | 160° |
| 2026-05-07 00:10 | 40.63564 | 22.77968 | 40076 ft | 500 kts | 160° |
| 2026-05-07 00:11 | 40.57101 | 22.81379 | 40076 ft | 501 kts | 160° |
| 2026-05-07 00:11 | 40.50616 | 22.84796 | 40075 ft | 502 kts | 160° |
| 2026-05-07 00:12 | 40.44133 | 22.88209 | 40074 ft | 502 kts | 160° |
| 2026-05-07 00:12 | 40.37643 | 22.91617 | 40074 ft | 502 kts | 160° |
| 2026-05-07 00:13 | 40.32244 | 22.94445 | 40072 ft | 502 kts | 160° |
| 2026-05-07 00:13 | 40.25757 | 22.97838 | 40054 ft | 502 kts | 160° |
| 2026-05-07 00:14 | 40.19266 | 23.01225 | 40061 ft | 502 kts | 160° |
| 2026-05-07 00:14 | 40.12774 | 23.04605 | 40056 ft | 502 kts | 160° |
| 2026-05-07 00:15 | 40.06283 | 23.07979 | 40053 ft | 502 kts | 160° |
| 2026-05-07 00:15 | 39.99789 | 23.11346 | 40051 ft | 503 kts | 160° |
| 2026-05-07 00:16 | 39.93279 | 23.14715 | 40047 ft | 504 kts | 160° |
| 2026-05-07 00:16 | 39.86756 | 23.18084 | 40048 ft | 504 kts | 160° |
| 2026-05-07 00:17 | 39.80226 | 23.21450 | 40040 ft | 504 kts | 160° |
| 2026-05-07 00:17 | 39.73699 | 23.24808 | 40047 ft | 505 kts | 160° |
| 2026-05-07 00:18 | 39.67165 | 23.28162 | 40049 ft | 505 kts | 160° |
| 2026-05-07 00:18 | 39.60635 | 23.31507 | 40047 ft | 505 kts | 160° |
| 2026-05-07 00:19 | 39.54099 | 23.34849 | 39922 ft | 503 kts | 160° |
| 2026-05-07 00:19 | 39.50841 | 23.36512 | 39757 ft | 504 kts | 160° |
| 2026-05-07 00:19 | 39.47576 | 23.38176 | 39603 ft | 505 kts | 160° |
| 2026-05-07 00:20 | 39.44305 | 23.39842 | 39418 ft | 505 kts | 160° |
| 2026-05-07 00:20 | 39.41083 | 23.41482 | 39269 ft | 505 kts | 160° |
| 2026-05-07 00:20 | 39.37812 | 23.43145 | 39119 ft | 505 kts | 160° |
| 2026-05-07 00:20 | 39.34543 | 23.44805 | 38896 ft | 503 kts | 160° |
| 2026-05-07 00:21 | 39.31291 | 23.46456 | 38287 ft | 501 kts | 160° |
| 2026-05-07 00:21 | 39.28039 | 23.48104 | 37549 ft | 502 kts | 160° |
| 2026-05-07 00:21 | 39.24798 | 23.49745 | 36994 ft | 498 kts | 160° |
| 2026-05-07 00:21 | 39.21583 | 23.51371 | 36512 ft | 495 kts | 160° |
| 2026-05-07 00:22 | 39.18386 | 23.52988 | 36019 ft | 492 kts | 159° |
| 2026-05-07 00:22 | 39.15203 | 23.54595 | 35526 ft | 490 kts | 159° |
| 2026-05-07 00:22 | 39.12030 | 23.56195 | 35024 ft | 489 kts | 159° |
| 2026-05-07 00:22 | 39.08871 | 23.57786 | 34430 ft | 488 kts | 159° |
| 2026-05-07 00:23 | 39.05685 | 23.59390 | 33537 ft | 495 kts | 159° |
| 2026-05-07 00:23 | 39.02459 | 23.61012 | 32572 ft | 501 kts | 159° |
| 2026-05-07 00:23 | 38.99196 | 23.62652 | 31629 ft | 505 kts | 159° |
| 2026-05-07 00:23 | 38.95909 | 23.64265 | 30727 ft | 507 kts | 162° |
| 2026-05-07 00:24 | 38.92475 | 23.65249 | 29878 ft | 504 kts | 173° |
| 2026-05-07 00:24 | 38.89013 | 23.65844 | 29107 ft | 500 kts | 175° |
| 2026-05-07 00:24 | 38.85578 | 23.66375 | 28412 ft | 494 kts | 175° |
| 2026-05-07 00:24 | 38.82190 | 23.66884 | 27740 ft | 488 kts | 175° |
| 2026-05-07 00:25 | 38.78834 | 23.67383 | 27051 ft | 483 kts | 175° |
| 2026-05-07 00:25 | 38.75513 | 23.67873 | 26365 ft | 478 kts | 175° |
| 2026-05-07 00:25 | 38.72219 | 23.68357 | 25693 ft | 474 kts | 176° |
| 2026-05-07 00:25 | 38.68953 | 23.68836 | 25006 ft | 470 kts | 176° |
| 2026-05-07 00:26 | 38.65713 | 23.69311 | 24321 ft | 467 kts | 176° |
| 2026-05-07 00:26 | 38.62499 | 23.69782 | 23616 ft | 463 kts | 176° |
| 2026-05-07 00:26 | 38.59307 | 23.70249 | 22846 ft | 460 kts | 176° |
| 2026-05-07 00:26 | 38.56145 | 23.70710 | 22138 ft | 455 kts | 176° |
| 2026-05-07 00:27 | 38.53017 | 23.71166 | 21495 ft | 449 kts | 176° |
| 2026-05-07 00:27 | 38.49949 | 23.71614 | 21165 ft | 437 kts | 176° |
| 2026-05-07 00:27 | 38.46962 | 23.72050 | 21091 ft | 431 kts | 176° |
| 2026-05-07 00:27 | 38.44007 | 23.72480 | 20796 ft | 423 kts | 176° |
| 2026-05-07 00:28 | 38.41077 | 23.72904 | 19886 ft | 426 kts | 176° |
| 2026-05-07 00:28 | 38.38108 | 23.73333 | 18985 ft | 431 kts | 176° |
| 2026-05-07 00:28 | 38.35122 | 23.73765 | 18149 ft | 432 kts | 176° |
| 2026-05-07 00:28 | 38.32140 | 23.74197 | 17459 ft | 428 kts | 176° |
| 2026-05-07 00:29 | 38.29211 | 23.74623 | 16880 ft | 421 kts | 176° |
| 2026-05-07 00:29 | 38.26304 | 23.75044 | 16051 ft | 420 kts | 176° |
| 2026-05-07 00:30 | 38.17676 | 23.75886 | 13935 ft | 406 kts | 190° |
| 2026-05-07 00:30 | 38.15060 | 23.74875 | 12741 ft | 384 kts | 209° |
| 2026-05-07 00:30 | 38.12863 | 23.73125 | 11910 ft | 359 kts | 217° |
| 2026-05-07 00:30 | 38.10849 | 23.71357 | 11389 ft | 350 kts | 217° |
| 2026-05-07 00:31 | 38.08836 | 23.69609 | 10787 ft | 351 kts | 216° |
| 2026-05-07 00:31 | 38.06858 | 23.67918 | 10522 ft | 341 kts | 215° |
| 2026-05-07 00:31 | 38.04932 | 23.66287 | 10414 ft | 326 kts | 215° |
| 2026-05-07 00:31 | 38.03086 | 23.64731 | 10315 ft | 312 kts | 215° |
| 2026-05-07 00:32 | 38.01313 | 23.63241 | 10197 ft | 300 kts | 215° |
| 2026-05-07 00:32 | 37.99601 | 23.61804 | 10075 ft | 290 kts | 215° |
| 2026-05-07 00:32 | 37.97921 | 23.60396 | 9771 ft | 290 kts | 215° |
| 2026-05-07 00:32 | 37.96244 | 23.58990 | 9426 ft | 288 kts | 214° |
| 2026-05-07 00:33 | 37.94575 | 23.57595 | 9069 ft | 286 kts | 214° |
| 2026-05-07 00:33 | 37.92919 | 23.56211 | 8722 ft | 284 kts | 214° |
| 2026-05-07 00:33 | 37.91275 | 23.54838 | 8376 ft | 282 kts | 214° |
| 2026-05-07 00:33 | 37.89646 | 23.53476 | 8031 ft | 280 kts | 214° |
| 2026-05-07 00:34 | 37.88027 | 23.52125 | 7693 ft | 278 kts | 214° |
| 2026-05-07 00:34 | 37.86419 | 23.50787 | 7346 ft | 276 kts | 214° |
| 2026-05-07 00:34 | 37.84796 | 23.49517 | 7014 ft | 274 kts | 206° |
| 2026-05-07 00:34 | 37.82950 | 23.49027 | 6757 ft | 273 kts | 178° |
| 2026-05-07 00:35 | 37.81131 | 23.49662 | 6592 ft | 274 kts | 152° |
| 2026-05-07 00:35 | 37.79708 | 23.51249 | 6421 ft | 275 kts | 130° |
| 2026-05-07 00:35 | 37.78643 | 23.53256 | 6246 ft | 276 kts | 119° |
| 2026-05-07 00:35 | 37.77821 | 23.55443 | 6064 ft | 276 kts | 115° |
| 2026-05-07 00:36 | 37.77049 | 23.57660 | 5892 ft | 274 kts | 115° |
| 2026-05-07 00:36 | 37.76303 | 23.59828 | 5714 ft | 264 kts | 115° |
| 2026-05-07 00:36 | 37.75585 | 23.61928 | 5549 ft | 256 kts | 115° |
| 2026-05-07 00:36 | 37.74892 | 23.63963 | 5375 ft | 249 kts | 115° |
| 2026-05-07 00:37 | 37.74362 | 23.66013 | 5220 ft | 243 kts | 106° |
| 2026-05-07 00:37 | 37.74056 | 23.68070 | 5055 ft | 241 kts | 97° |
| 2026-05-07 00:37 | 37.73930 | 23.70178 | 4879 ft | 239 kts | 95° |
| 2026-05-07 00:37 | 37.73840 | 23.72250 | 4711 ft | 233 kts | 94° |
| 2026-05-07 00:38 | 37.74209 | 23.74203 | 4546 ft | 230 kts | 63° |
| 2026-05-07 00:38 | 37.75182 | 23.75780 | 4343 ft | 226 kts | 42° |
| 2026-05-07 00:38 | 37.76420 | 23.76977 | 4167 ft | 223 kts | 35° |
| 2026-05-07 00:38 | 37.77680 | 23.78114 | 3918 ft | 219 kts | 37° |
| 2026-05-07 00:39 | 37.78869 | 23.79262 | 3600 ft | 212 kts | 38° |
| 2026-05-07 00:39 | 37.80034 | 23.80372 | 3284 ft | 207 kts | 37° |
| 2026-05-07 00:39 | 37.81171 | 23.81448 | 2999 ft | 201 kts | 37° |
| 2026-05-07 00:39 | 37.82262 | 23.82485 | 2745 ft | 191 kts | 37° |
| 2026-05-07 00:40 | 37.83285 | 23.83458 | 2498 ft | 178 kts | 37° |
| 2026-05-07 00:40 | 37.84259 | 23.84383 | 2264 ft | 174 kts | 37° |
| 2026-05-07 00:40 | 37.85220 | 23.85296 | 2048 ft | 171 kts | 37° |
| 2026-05-07 00:40 | 37.86131 | 23.86162 | 1824 ft | 156 kts | 37° |
| 2026-05-07 00:41 | 37.86961 | 23.86952 | 1620 ft | 143 kts | 37° |
| 2026-05-07 00:41 | 37.87729 | 23.87682 | 1427 ft | 134 kts | 37° |
| 2026-05-07 00:41 | 37.88473 | 23.88391 | 1262 ft | 134 kts | 37° |
| 2026-05-07 00:41 | 37.89214 | 23.89096 | 1072 ft | 133 kts | 37° |
| 2026-05-07 00:42 | 37.89946 | 23.89793 | 895 ft | 131 kts | 37° |
| 2026-05-07 00:42 | 37.90665 | 23.90478 | 725 ft | 128 kts | 37° |
| 2026-05-07 00:42 | 37.91375 | 23.91155 | 558 ft | 127 kts | 36° |
| 2026-05-07 00:42 | 37.92075 | 23.91822 | 391 ft | 126 kts | 36° |
| 2026-05-07 00:43 | 37.92759 | 23.92470 | 307 ft | 110 kts | 37° |
| 2026-05-07 00:43 | 37.93226 | 23.92913 | 298 ft | 58 kts | 37° |
| 2026-05-07 00:43 | 37.93451 | 23.93129 | 298 ft | 24 kts | 38° |
| 2026-05-07 00:43 | 37.93542 | 23.93242 | 298 ft | 17 kts | 50° |
| 2026-05-07 00:44 | 37.93594 | 23.93349 | 297 ft | 7 kts | 65° |
| 2026-05-07 00:44 | 37.93613 | 23.93399 | 302 ft | 6 kts | 65° |
| 2026-05-07 00:44 | 37.93623 | 23.93440 | 301 ft | 5 kts | 78° |
| 2026-05-07 00:44 | 37.93621 | 23.93476 | 304 ft | 4 kts | 105° |
| 2026-05-07 00:45 | 37.93606 | 23.93502 | 307 ft | 5 kts | 136° |
| 2026-05-07 00:45 | 37.93562 | 23.93510 | 305 ft | 7 kts | 197° |
| 2026-05-07 00:45 | 37.93526 | 23.93479 | 305 ft | 9 kts | 215° |
| 2026-05-07 00:45 | 37.93455 | 23.93432 | 307 ft | 11 kts | 183° |
| 2026-05-07 00:46 | 37.93395 | 23.93491 | 309 ft | 12 kts | 129° |
| 2026-05-07 00:46 | 37.93342 | 23.93587 | 307 ft | 15 kts | 125° |
| 2026-05-07 00:46 | 37.93278 | 23.93699 | 308 ft | 17 kts | 126° |
| 2026-05-07 00:46 | 37.93208 | 23.93815 | 309 ft | 15 kts | 128° |
| 2026-05-07 00:47 | 37.93147 | 23.93915 | 308 ft | 10 kts | 128° |
| 2026-05-07 00:47 | 37.93108 | 23.93980 | 309 ft | 11 kts | 127° |
| 2026-05-07 00:47 | 37.93058 | 23.94063 | 309 ft | 12 kts | 127° |
| 2026-05-07 00:47 | 37.93009 | 23.94144 | 309 ft | 11 kts | 127° |
| 2026-05-07 00:48 | 37.92971 | 23.94207 | 308 ft | 3 kts | 128° |
| 2026-05-07 00:48 | 37.92959 | 23.94222 | 310 ft | 3 kts | 139° |
| 2026-05-07 00:48 | 37.92933 | 23.94222 | 309 ft | 5 kts | 201° |
| 2026-05-07 00:48 | 37.92900 | 23.94193 | 310 ft | 6 kts | 216° |
| 2026-05-07 00:49 | 37.92881 | 23.94175 | 310 ft | 2 kts | 217° |
| 2026-05-07 00:49 | 37.92877 | 23.94171 | 308 ft | 0 kts | 217° |